Time;durP1;ratioP1;P1;durP2;ratioP2;P2;SDS_P1;SDS_P2;PMS_P1;PMS_P2;Temp;Humidity;BMP_temperature;BMP_pressure;BME280_temperature;BME280_humidity;BME280_pressure;Samples;Min_cycle;Max_cycle;Signal;HPM_P1;HPM_P2
2023/06/03 00:00:47;;;;;;;3.00;2.67;;;13.80;64.20;;;;;;5079235;28;20224;-76
2023/06/03 00:03:14;;;;;;;2.15;1.95;;;13.80;64.30;;;;;;5079189;28;20278;-76
2023/06/03 00:05:41;;;;;;;4.13;1.65;;;13.80;64.30;;;;;;5079307;28;20247;-76
2023/06/03 00:08:09;;;;;;;2.17;1.53;;;13.80;64.20;;;;;;5076451;28;20259;-76
2023/06/03 00:10:37;;;;;;;4.00;2.15;;;13.70;64.20;;;;;;5075869;28;20466;-76
2023/06/03 00:13:04;;;;;;;3.08;1.80;;;13.70;64.30;;;;;;5075007;28;20235;-77
2023/06/03 00:15:31;;;;;;;2.50;1.92;;;13.60;64.20;;;;;;5065119;28;20825;-76
2023/06/03 00:17:59;;;;;;;2.65;2.08;;;13.60;64.50;;;;;;5074898;28;20231;-76
2023/06/03 00:20:28;;;;;;;1.85;1.70;;;13.50;64.60;;;;;;5054645;28;20705;-76
2023/06/03 00:22:58;;;;;;;2.33;2.00;;;13.50;64.50;;;;;;5053224;28;20224;-76
2023/06/03 00:25:26;;;;;;;2.28;1.95;;;13.50;64.60;;;;;;5054712;28;20224;-76
2023/06/03 00:27:53;;;;;;;2.67;2.03;;;13.40;64.70;;;;;;5044557;28;20224;-76
2023/06/03 00:30:20;;;;;;;3.85;1.67;;;13.40;65.00;;;;;;5053916;28;20227;-77
2023/06/03 00:32:48;;;;;;;3.67;2.10;;;13.30;65.00;;;;;;5054848;28;20560;-76
2023/06/03 00:35:16;;;;;;;7.03;2.20;;;13.30;65.20;;;;;;5093469;28;20219;-77
2023/06/03 00:37:43;;;;;;;3.65;1.60;;;13.30;65.30;;;;;;5094373;28;20665;-76
2023/06/03 00:40:11;;;;;;;3.10;1.83;;;13.30;65.50;;;;;;5093957;28;20272;-76
2023/06/03 00:42:38;;;;;;;3.28;1.95;;;13.30;65.70;;;;;;5093724;28;20215;-76
2023/06/03 00:45:09;;;;;;;2.78;2.47;;;13.20;65.60;;;;;;5095304;28;20684;-76
2023/06/03 00:47:36;;;;;;;2.20;2.00;;;13.30;65.80;;;;;;5093803;28;20223;-76
2023/06/03 00:50:04;;;;;;;2.65;2.30;;;13.20;65.80;;;;;;5094083;28;20288;-76
2023/06/03 00:52:33;;;;;;;3.38;2.03;;;13.30;66.00;;;;;;5092590;28;20223;-76
2023/06/03 00:55:00;;;;;;;2.40;2.00;;;13.30;65.80;;;;;;5094676;28;20223;-76
2023/06/03 00:57:28;;;;;;;5.93;1.52;;;13.30;65.90;;;;;;5093290;28;20227;-76
2023/06/03 00:59:55;;;;;;;4.53;2.10;;;13.20;65.80;;;;;;5093856;28;20306;-76
2023/06/03 01:02:23;;;;;;;2.13;1.75;;;13.20;65.80;;;;;;5092809;28;20290;-77
2023/06/03 01:04:51;;;;;;;2.35;1.52;;;13.20;65.80;;;;;;5092811;28;20231;-76
2023/06/03 01:07:27;;;;;;;1.48;1.38;;;13.20;65.80;;;;;;5093732;28;20215;-76
2023/06/03 01:10:09;;;;;;;1.73;1.50;;;13.20;65.80;;;;;;5093401;28;20229;-76
2023/06/03 01:12:50;;;;;;;3.35;1.60;;;13.20;66.10;;;;;;5093117;28;20680;-77
2023/06/03 01:15:20;;;;;;;1.38;1.20;;;13.10;66.10;;;;;;5092743;28;20541;-76
2023/06/03 01:17:51;;;;;;;2.97;1.80;;;13.10;66.10;;;;;;5091549;28;20695;-76
2023/06/03 01:20:19;;;;;;;2.55;1.70;;;13.10;66.50;;;;;;5092755;28;20223;-77
2023/06/03 01:22:49;;;;;;;1.70;1.55;;;13.10;66.30;;;;;;5092871;28;20246;-77
2023/06/03 01:25:21;;;;;;;1.58;1.48;;;13.10;66.30;;;;;;5081683;28;20223;-77
2023/06/03 01:27:48;;;;;;;1.50;1.40;;;13.10;66.40;;;;;;5092599;28;20673;-76
2023/06/03 01:30:21;;;;;;;2.45;2.25;;;13.00;66.40;;;;;;5093160;28;20568;-76
2023/06/03 01:32:51;;;;;;;2.08;1.40;;;13.00;67.40;;;;;;5091277;28;20227;-76
2023/06/03 01:35:19;;;;;;;1.92;1.30;;;13.00;66.50;;;;;;5093246;28;20234;-77
2023/06/03 01:37:47;;;;;;;2.63;1.50;;;13.00;66.50;;;;;;5092084;28;20231;-76
2023/06/03 01:40:14;;;;;;;3.58;1.60;;;12.90;66.40;;;;;;5092751;28;20215;-76
2023/06/03 01:42:43;;;;;;;2.95;1.95;;;12.90;66.40;;;;;;5092488;28;20226;-77
2023/06/03 01:45:11;;;;;;;2.63;1.67;;;12.80;66.30;;;;;;5092655;28;20231;-76
2023/06/03 01:47:44;;;;;;;2.05;1.83;;;12.70;66.60;;;;;;5081712;28;20235;-77
2023/06/03 01:50:11;;;;;;;1.77;1.27;;;12.70;66.60;;;;;;5092155;28;20661;-76
2023/06/03 01:52:38;;;;;;;2.03;1.60;;;12.60;66.60;;;;;;5096749;28;20223;-76
2023/06/03 01:55:06;;;;;;;1.50;1.40;;;12.60;66.60;;;;;;5096527;28;20355;-75
2023/06/03 01:57:33;;;;;;;1.50;1.20;;;12.60;67.10;;;;;;5096649;28;20607;-76
2023/06/03 02:00:06;;;;;;;4.22;1.63;;;12.50;67.20;;;;;;5096323;28;20250;-77
2023/06/03 02:02:33;;;;;;;4.00;1.75;;;12.50;67.60;;;;;;5098198;28;20223;-76
2023/06/03 02:05:00;;;;;;;1.50;1.40;;;12.50;67.10;;;;;;5096363;28;20289;-76
2023/06/03 02:07:30;;;;;;;1.70;1.30;;;12.50;66.90;;;;;;5096480;28;20219;-77
2023/06/03 02:09:57;;;;;;;1.75;1.65;;;12.50;67.00;;;;;;5087906;28;20219;-76
2023/06/03 02:12:24;;;;;;;2.20;1.65;;;12.40;66.70;;;;;;5097311;28;20219;-77
2023/06/03 02:14:53;;;;;;;2.60;1.67;;;12.50;67.00;;;;;;5096286;28;20248;-76
2023/06/03 02:17:22;;;;;;;1.52;1.40;;;12.40;66.70;;;;;;5096687;28;20227;-77
2023/06/03 02:19:49;;;;;;;2.17;1.42;;;12.40;66.90;;;;;;5096023;28;20247;-76
2023/06/03 02:22:17;;;;;;;1.60;1.20;;;12.40;67.30;;;;;;5096659;28;20360;-77
2023/06/03 02:24:46;;;;;;;1.80;1.40;;;12.40;67.10;;;;;;5095647;28;20310;-76
2023/06/03 02:27:14;;;;;;;1.60;1.40;;;12.40;67.30;;;;;;5095985;28;20229;-76
2023/06/03 02:29:42;;;;;;;2.65;1.48;;;12.40;67.40;;;;;;5096413;28;20219;-76
2023/06/03 02:32:09;;;;;;;1.52;1.30;;;12.40;67.40;;;;;;5096306;28;20246;-76
2023/06/03 02:34:38;;;;;;;1.65;1.17;;;12.40;67.00;;;;;;5096180;28;20277;-76
2023/06/03 02:37:06;;;;;;;2.25;1.45;;;12.30;67.10;;;;;;5093289;28;22403;-77
2023/06/03 02:39:33;;;;;;;2.55;1.30;;;12.40;67.10;;;;;;5096354;28;20630;-76
2023/06/03 02:42:00;;;;;;;1.55;1.42;;;12.30;66.70;;;;;;5095170;28;20324;-77
2023/06/03 02:44:27;;;;;;;1.50;1.20;;;12.30;66.90;;;;;;5095529;28;20276;-76
2023/06/03 02:46:56;;;;;;;1.60;1.50;;;12.30;66.70;;;;;;5094795;28;20534;-76
2023/06/03 02:49:23;;;;;;;1.77;1.30;;;12.30;66.80;;;;;;5093108;28;20227;-76
2023/06/03 02:51:52;;;;;;;2.25;1.55;;;12.30;66.70;;;;;;5094984;28;20230;-76
2023/06/03 02:54:20;;;;;;;1.85;1.50;;;12.30;66.70;;;;;;5095393;28;20223;-77
2023/06/03 02:56:47;;;;;;;2.08;1.67;;;12.20;66.50;;;;;;5095750;28;20228;-76
2023/06/03 02:59:14;;;;;;;2.70;1.40;;;12.20;66.90;;;;;;5094665;28;20219;-76
2023/06/03 03:01:41;;;;;;;2.03;1.38;;;12.20;66.90;;;;;;5094764;28;20570;-77
2023/06/03 03:04:08;;;;;;;1.70;1.33;;;12.20;66.90;;;;;;5095737;28;20246;-76
2023/06/03 03:06:37;;;;;;;1.77;1.45;;;12.10;66.90;;;;;;5095357;28;20235;-76
2023/06/03 03:09:05;;;;;;;2.33;1.48;;;12.10;66.70;;;;;;5094219;28;20557;-76
2023/06/03 03:11:32;;;;;;;2.08;1.42;;;12.10;67.00;;;;;;5095611;28;20615;-77
2023/06/03 03:14:00;;;;;;;1.30;1.20;;;12.10;66.90;;;;;;5095173;28;20223;-76
2023/06/03 03:16:28;;;;;;;1.92;1.60;;;12.00;66.90;;;;;;5095747;28;20695;-76
2023/06/03 03:19:05;;;;;;;1.88;1.70;;;12.00;66.70;;;;;;5094257;28;20223;-76
2023/06/03 03:21:35;;;;;;;2.22;1.20;;;12.00;66.90;;;;;;5095975;28;20310;-77
2023/06/03 03:24:02;;;;;;;2.20;1.23;;;12.00;67.00;;;;;;5095092;28;20227;-76
2023/06/03 03:26:31;;;;;;;2.00;1.83;;;12.00;67.90;;;;;;5095532;28;20243;-76
2023/06/03 03:29:01;;;;;;;2.30;1.73;;;12.00;67.00;;;;;;5094641;28;20227;-76
2023/06/03 03:31:29;;;;;;;3.72;1.65;;;12.00;66.90;;;;;;5095176;28;20230;-77
2023/06/03 03:33:58;;;;;;;2.03;1.50;;;12.00;66.90;;;;;;5094281;28;20219;-77
2023/06/03 03:36:28;;;;;;;2.30;1.52;;;11.90;66.60;;;;;;5094838;28;20223;-77
2023/06/03 03:39:04;;;;;;;4.53;1.40;;;11.90;66.90;;;;;;5094257;28;20227;-76
2023/06/03 03:41:33;;;;;;;2.58;1.20;;;11.90;66.70;;;;;;5094771;28;20227;-76
2023/06/03 03:44:00;;;;;;;1.52;1.30;;;12.00;66.80;;;;;;5094077;28;20455;-77
2023/06/03 03:46:28;;;;;;;2.70;1.45;;;12.00;66.70;;;;;;5094575;28;20223;-76
2023/06/03 03:48:55;;;;;;;1.60;1.40;;;12.00;66.80;;;;;;5093775;28;20220;-76
2023/06/03 03:51:22;;;;;;;2.05;1.23;;;11.90;66.60;;;;;;5094873;28;20245;-76
2023/06/03 03:53:50;;;;;;;1.70;1.40;;;11.90;66.70;;;;;;5094144;28;20223;-76
2023/06/03 03:56:18;;;;;;;3.08;1.27;;;12.00;66.60;;;;;;5094171;28;20242;-77
2023/06/03 03:58:48;;;;;;;2.70;1.60;;;12.00;66.70;;;;;;5082078;28;20544;-76
2023/06/03 04:01:17;;;;;;;2.30;1.30;;;12.00;66.60;;;;;;5093483;28;20631;-76
2023/06/03 04:03:47;;;;;;;1.63;1.20;;;11.90;66.50;;;;;;5094381;28;20237;-76
2023/06/03 04:06:15;;;;;;;1.50;1.30;;;12.00;66.60;;;;;;5093599;28;20231;-77
2023/06/03 04:08:45;;;;;;;2.03;1.27;;;11.90;66.60;;;;;;5083304;28;20765;-76
2023/06/03 04:11:21;;;;;;;4.22;1.58;;;11.90;66.90;;;;;;5093676;28;20563;-76
2023/06/03 04:13:50;;;;;;;2.13;1.42;;;12.00;67.10;;;;;;5082789;28;20235;-76
2023/06/03 04:16:48;;;;;;;1.50;1.40;;;12.00;67.10;;;;;;5093096;28;20223;-76
2023/06/03 04:19:18;;;;;;;2.05;1.50;;;12.00;67.10;;;;;;5093654;28;20219;-76
2023/06/03 04:21:51;;;;;;;2.20;1.50;;;12.10;67.20;;;;;;5094736;28;20231;-76
2023/06/03 04:24:18;;;;;;;2.05;1.80;;;12.10;67.00;;;;;;5094151;28;20211;-76
2023/06/03 04:26:57;;;;;;;1.30;1.20;;;12.10;68.00;;;;;;5093654;28;20219;-76
2023/06/03 04:29:25;;;;;;;1.90;1.40;;;12.00;67.00;;;;;;5092373;28;20211;-76
2023/06/03 04:31:52;;;;;;;1.77;1.40;;;12.10;67.10;;;;;;5093607;28;20223;-76
2023/06/03 04:34:19;;;;;;;3.47;1.20;;;12.00;67.30;;;;;;5093192;28;20292;-76
2023/06/03 04:36:46;;;;;;;2.78;1.55;;;12.00;67.40;;;;;;5093751;28;20720;-76
2023/06/03 04:39:13;;;;;;;1.33;1.23;;;12.00;67.50;;;;;;5092545;28;20223;-76
2023/06/03 04:41:40;;;;;;;2.53;1.63;;;12.00;67.80;;;;;;5093740;28;20322;-76
2023/06/03 04:44:08;;;;;;;1.52;1.40;;;12.10;68.20;;;;;;5093343;28;20641;-76
2023/06/03 04:46:36;;;;;;;1.55;1.45;;;12.10;68.40;;;;;;5091242;28;20223;-76
2023/06/03 04:49:08;;;;;;;1.40;1.30;;;12.10;68.80;;;;;;5093589;28;20223;-76
2023/06/03 04:51:40;;;;;;;10.98;1.92;;;12.10;68.40;;;;;;5092741;28;20758;-76
2023/06/03 04:54:08;;;;;;;5.68;1.50;;;12.10;68.60;;;;;;5093370;28;20272;-76
2023/06/03 04:56:35;;;;;;;2.05;1.85;;;12.10;68.70;;;;;;5092549;28;20231;-76
2023/06/03 04:59:03;;;;;;;5.20;1.77;;;12.20;68.80;;;;;;5092817;28;20223;-77
2023/06/03 05:01:31;;;;;;;2.92;1.50;;;12.30;68.80;;;;;;5092807;28;20223;-76
2023/06/03 05:04:02;;;;;;;1.73;1.48;;;12.40;68.80;;;;;;5092069;28;20223;-76
2023/06/03 05:06:34;;;;;;;4.88;2.03;;;12.50;68.80;;;;;;5082437;28;20671;-76
2023/06/03 05:09:01;;;;;;;3.67;1.45;;;12.60;68.80;;;;;;5082397;28;20633;-77
2023/06/03 05:11:28;;;;;;;2.28;1.33;;;12.60;68.40;;;;;;5092649;28;20255;-77
2023/06/03 05:13:55;;;;;;;1.70;1.30;;;12.70;68.10;;;;;;5093014;28;20545;-76
2023/06/03 05:16:22;;;;;;;5.00;1.70;;;12.80;68.00;;;;;;5091312;28;20223;-75
2023/06/03 05:18:50;;;;;;;2.15;1.70;;;12.90;68.10;;;;;;5093235;28;20225;-75
2023/06/03 05:21:19;;;;;;;1.83;1.42;;;13.00;67.10;;;;;;5092933;28;20306;-75
2023/06/03 05:23:46;;;;;;;2.47;1.60;;;13.10;67.20;;;;;;5092486;28;20272;-75
2023/06/03 05:26:13;;;;;;;2.28;1.70;;;13.20;66.90;;;;;;5096548;28;20300;-75
2023/06/03 05:28:40;;;;;;;1.90;1.45;;;13.20;66.70;;;;;;5095912;28;20227;-75
2023/06/03 05:31:07;;;;;;;2.42;1.70;;;13.30;66.10;;;;;;5095864;28;20226;-75
2023/06/03 05:33:36;;;;;;;4.82;1.98;;;13.40;66.10;;;;;;5096473;28;20663;-75
2023/06/03 05:36:03;;;;;;;3.53;1.90;;;13.50;66.30;;;;;;5096970;28;20241;-75
2023/06/03 05:38:58;;;;;;;3.28;1.80;;;13.50;65.50;;;;;;5097747;28;20230;-75
2023/06/03 05:41:26;;;;;;;1.90;1.70;;;13.50;65.20;;;;;;5099720;28;20219;-75
2023/06/03 05:43:53;;;;;;;1.90;1.73;;;13.50;65.50;;;;;;5096798;28;20223;-75
2023/06/03 05:46:20;;;;;;;2.60;1.70;;;13.60;65.70;;;;;;5096602;28;20638;-75
2023/06/03 05:48:48;;;;;;;4.32;1.80;;;13.60;65.20;;;;;;5096086;28;20219;-75
2023/06/03 05:51:15;;;;;;;9.32;1.70;;;13.70;66.30;;;;;;5096501;28;20234;-75
2023/06/03 05:53:43;;;;;;;2.58;1.60;;;13.70;65.20;;;;;;5085650;28;20234;-76
2023/06/03 05:56:12;;;;;;;2.83;1.95;;;13.80;65.20;;;;;;5095570;28;20657;-75
2023/06/03 05:58:43;;;;;;;3.00;2.10;;;13.90;65.00;;;;;;5096241;28;20220;-75
2023/06/03 06:01:10;;;;;;;5.25;2.08;;;14.00;64.90;;;;;;5093882;28;20276;-76
2023/06/03 06:03:37;;;;;;;6.57;2.17;;;14.10;65.20;;;;;;5095946;28;20223;-76
2023/06/03 06:06:05;;;;;;;3.20;1.87;;;14.20;65.20;;;;;;5096011;28;20223;-75
2023/06/03 06:08:31;;;;;;;2.30;1.97;;;14.30;64.70;;;;;;5094695;28;20468;-75
2023/06/03 06:10:58;;;;;;;3.10;1.97;;;14.50;64.60;;;;;;5094869;28;20947;-75
2023/06/03 06:13:27;;;;;;;6.63;1.83;;;14.60;63.80;;;;;;5097223;28;20465;-75
2023/06/03 06:15:59;;;;;;;4.30;2.40;;;14.80;63.50;;;;;;5097799;28;20871;-75
2023/06/03 06:18:26;;;;;;;1.90;1.63;;;14.90;63.40;;;;;;5096823;28;20461;-75
2023/06/03 06:20:57;;;;;;;1.90;1.80;;;15.00;62.30;;;;;;5095298;28;20870;-74
2023/06/03 06:23:28;;;;;;;2.13;1.70;;;15.20;62.20;;;;;;5094545;28;20556;-75
2023/06/03 06:25:57;;;;;;;3.43;2.17;;;15.30;61.10;;;;;;5095388;28;20534;-75
2023/06/03 06:28:28;;;;;;;4.37;2.23;;;15.40;60.70;;;;;;5095295;28;20465;-75
2023/06/03 06:30:57;;;;;;;3.50;1.70;;;15.60;60.60;;;;;;5084344;28;20481;-76
2023/06/03 06:33:28;;;;;;;4.63;2.00;;;15.80;60.50;;;;;;5095534;28;20491;-75
2023/06/03 06:35:55;;;;;;;3.07;1.93;;;15.90;60.40;;;;;;5094948;28;20538;-74
2023/06/03 06:38:22;;;;;;;2.70;1.90;;;16.00;60.00;;;;;;5095586;28;20469;-75
2023/06/03 06:40:52;;;;;;;2.33;1.90;;;16.10;59.70;;;;;;5095185;28;20506;-75
2023/06/03 06:43:25;;;;;;;2.90;1.87;;;16.20;59.20;;;;;;5094326;28;20484;-75
2023/06/03 06:45:57;;;;;;;2.70;1.93;;;16.30;58.70;;;;;;5095936;28;20468;-75
2023/06/03 06:48:24;;;;;;;2.57;1.87;;;16.50;58.80;;;;;;5095918;28;20455;-75
2023/06/03 06:51:02;;;;;;;2.63;1.80;;;16.60;58.40;;;;;;5103620;28;20548;-76
2023/06/03 06:53:30;;;;;;;3.53;1.80;;;16.90;58.40;;;;;;5076019;28;20462;-76
2023/06/03 06:55:59;;;;;;;1.67;1.57;;;17.00;58.50;;;;;;5095540;28;20542;-76
2023/06/03 06:58:27;;;;;;;3.67;1.90;;;17.20;57.60;;;;;;5094402;28;20477;-75
2023/06/03 07:00:57;;;;;;;2.13;1.63;;;17.40;57.10;;;;;;5094546;28;20474;-75
2023/06/03 07:03:24;;;;;;;4.60;1.93;;;17.60;56.60;;;;;;5095522;28;20465;-74
2023/06/03 07:05:53;;;;;;;4.30;2.10;;;17.80;56.50;;;;;;5094209;28;20466;-75
2023/06/03 07:08:22;;;;;;;3.07;1.93;;;17.90;56.10;;;;;;5084237;28;20535;-75
2023/06/03 07:10:54;;;;;;;4.40;1.90;;;18.10;56.00;;;;;;5094878;28;20462;-75
2023/06/03 07:13:22;;;;;;;3.30;1.77;;;18.30;55.50;;;;;;5094887;28;20560;-75
2023/06/03 07:15:49;;;;;;;3.43;1.70;;;18.40;55.40;;;;;;5093861;28;20470;-75
2023/06/03 07:18:17;;;;;;;2.50;1.63;;;18.60;55.50;;;;;;5094938;28;20491;-75
2023/06/03 07:20:45;;;;;;;4.30;1.87;;;18.80;55.30;;;;;;5094525;28;20526;-75
2023/06/03 07:23:14;;;;;;;1.83;1.73;;;18.90;54.90;;;;;;5095056;28;20469;-74
2023/06/03 07:25:43;;;;;;;2.47;1.60;;;19.00;55.00;;;;;;5093728;28;20483;-75
2023/06/03 07:28:12;;;;;;;2.60;1.93;;;19.20;54.40;;;;;;5094657;28;20461;-75
2023/06/03 07:30:40;;;;;;;2.70;1.60;;;19.30;53.80;;;;;;5093367;28;20476;-75
2023/06/03 07:33:10;;;;;;;2.43;1.90;;;19.50;53.70;;;;;;5093869;28;20465;-75
2023/06/03 07:35:38;;;;;;;4.00;2.30;;;19.60;52.80;;;;;;5094142;28;20808;-75
2023/06/03 07:38:06;;;;;;;2.30;1.93;;;19.70;53.10;;;;;;5083062;28;20457;-75
2023/06/03 07:40:42;;;;;;;1.97;1.30;;;19.80;53.00;;;;;;5094253;28;20461;-76
2023/06/03 07:43:09;;;;;;;6.60;1.70;;;19.90;52.50;;;;;;5093981;28;20529;-76
2023/06/03 07:45:37;;;;;;;2.37;1.60;;;20.00;52.30;;;;;;5093643;28;20501;-76
2023/06/03 07:48:05;;;;;;;2.93;2.33;;;20.00;52.20;;;;;;5092411;28;20534;-75
2023/06/03 07:50:33;;;;;;;2.80;1.70;;;20.20;52.30;;;;;;5094248;28;20991;-74
2023/06/03 07:53:02;;;;;;;6.20;2.53;;;20.40;52.30;;;;;;5093553;28;20469;-76
2023/06/03 07:55:41;;;;;;;2.60;2.37;;;20.50;51.60;;;;;;5094061;28;20469;-75
2023/06/03 07:58:10;;;;;;;2.33;1.87;;;20.60;51.10;;;;;;5073517;28;20438;-74
2023/06/03 08:00:40;;;;;;;4.40;2.20;;;20.80;50.80;;;;;;5073609;28;20466;-76
2023/06/03 08:03:08;;;;;;;3.43;2.43;;;20.80;51.00;;;;;;5072859;28;20454;-76
2023/06/03 08:05:36;;;;;;;5.17;2.30;;;21.00;49.80;;;;;;5073636;28;20470;-76
2023/06/03 08:08:06;;;;;;;3.43;1.90;;;21.10;50.00;;;;;;5073313;28;20477;-76
2023/06/03 08:10:36;;;;;;;2.53;2.33;;;21.10;49.40;;;;;;5073620;28;20626;-77
2023/06/03 08:13:03;;;;;;;2.27;1.30;;;21.10;48.90;;;;;;5073083;28;20481;-76
2023/06/03 08:15:42;;;;;;;3.60;1.80;;;21.10;48.80;;;;;;5073466;28;20475;-77
2023/06/03 08:18:10;;;;;;;2.07;1.87;;;21.00;48.80;;;;;;5072718;28;20527;-76
2023/06/03 08:20:38;;;;;;;2.97;1.97;;;21.10;49.30;;;;;;5073143;28;20474;-76
2023/06/03 08:23:07;;;;;;;4.20;2.10;;;21.20;49.30;;;;;;5073262;28;20470;-76
2023/06/03 08:25:34;;;;;;;4.50;1.63;;;21.30;49.30;;;;;;5073110;28;20482;-76
2023/06/03 08:28:01;;;;;;;2.30;2.07;;;21.40;49.50;;;;;;5072839;28;20477;-76
2023/06/03 08:30:28;;;;;;;2.67;2.07;;;21.40;49.00;;;;;;5073736;28;20478;-76
2023/06/03 08:32:55;;;;;;;2.43;2.23;;;21.40;48.60;;;;;;5071867;28;20466;-77
2023/06/03 08:35:23;;;;;;;4.70;2.03;;;21.50;48.00;;;;;;5064535;28;20869;-76
2023/06/03 08:37:51;;;;;;;2.40;2.00;;;21.50;48.20;;;;;;5072837;28;20493;-76
2023/06/03 08:40:23;;;;;;;2.03;1.77;;;21.50;48.40;;;;;;5072489;28;20537;-76
2023/06/03 08:42:54;;;;;;;2.13;2.00;;;21.60;48.60;;;;;;5073247;28;20588;-76
2023/06/03 08:45:30;;;;;;;2.43;1.87;;;21.50;47.80;;;;;;5071639;28;20470;-77
2023/06/03 08:48:07;;;;;;;2.87;1.77;;;21.40;47.60;;;;;;5072454;28;20840;-77
2023/06/03 08:50:35;;;;;;;4.97;2.10;;;21.40;47.80;;;;;;5072931;28;20470;-76
2023/06/03 08:53:08;;;;;;;3.63;3.30;;;21.40;47.80;;;;;;5072349;28;20520;-76
2023/06/03 08:55:39;;;;;;;3.40;2.60;;;21.40;48.30;;;;;;5073257;28;20493;-77
2023/06/03 08:58:12;;;;;;;4.00;1.60;;;21.50;48.50;;;;;;5092233;28;20461;-76
2023/06/03 09:00:40;;;;;;;2.57;1.50;;;21.50;48.40;;;;;;5092543;28;20472;-76
2023/06/03 09:03:08;;;;;;;2.83;1.47;;;21.40;47.70;;;;;;5080754;28;20482;-77
2023/06/03 09:05:36;;;;;;;2.30;2.10;;;21.40;48.00;;;;;;5092386;28;20484;-76
2023/06/03 09:08:05;;;;;;;2.73;1.80;;;21.40;47.90;;;;;;5093127;28;20485;-75
2023/06/03 09:10:33;;;;;;;5.30;4.20;;;21.30;48.00;;;;;;5093461;28;20457;-76
2023/06/03 09:13:03;;;;;;;5.57;1.80;;;21.30;48.30;;;;;;5094281;28;20465;-76
2023/06/03 09:15:31;;;;;;;4.37;2.33;;;21.30;47.70;;;;;;5092585;28;20449;-75
2023/06/03 09:17:58;;;;;;;2.90;2.13;;;21.30;48.00;;;;;;5093160;28;20474;-75
2023/06/03 09:20:25;;;;;;;1.90;1.60;;;21.30;47.80;;;;;;5092067;28;20979;-76
2023/06/03 09:22:53;;;;;;;4.40;2.30;;;21.20;48.10;;;;;;5093675;28;20473;-76
2023/06/03 09:25:21;;;;;;;5.03;2.13;;;21.20;48.00;;;;;;5092656;28;20556;-75
2023/06/03 09:27:48;;;;;;;4.47;2.00;;;21.20;47.30;;;;;;5095141;28;20457;-76
2023/06/03 09:30:17;;;;;;;1.67;1.47;;;21.10;47.10;;;;;;5092727;28;20840;-76
2023/06/03 09:32:45;;;;;;;4.13;2.27;;;20.90;47.40;;;;;;5082230;28;20503;-76
2023/06/03 09:35:12;;;;;;;4.30;1.83;;;21.00;47.60;;;;;;5093166;28;20567;-75
2023/06/03 09:37:39;;;;;;;4.33;1.70;;;21.00;47.90;;;;;;5081448;28;20985;-76
2023/06/03 09:40:25;;;;;;;4.67;2.40;;;20.90;47.00;;;;;;5092726;28;20986;-76
2023/06/03 09:42:52;;;;;;;3.30;1.90;;;20.80;47.30;;;;;;5092507;28;20452;-76
2023/06/03 09:45:28;;;;;;;2.40;1.90;;;20.80;47.40;;;;;;5092654;28;20476;-76
2023/06/03 09:47:55;;;;;;;3.23;2.20;;;20.90;47.70;;;;;;5092728;28;20547;-76
2023/06/03 09:50:23;;;;;;;2.10;1.67;;;20.90;47.80;;;;;;5092168;28;20584;-76
2023/06/03 09:52:50;;;;;;;2.60;1.40;;;21.00;47.80;;;;;;5092553;28;20524;-75
2023/06/03 09:55:18;;;;;;;1.93;1.60;;;21.00;47.30;;;;;;5092810;28;20986;-76
2023/06/03 09:58:03;;;;;;;3.33;1.47;;;21.00;46.80;;;;;;5092675;28;20469;-76
2023/06/03 10:00:33;;;;;;;2.60;1.83;;;21.00;46.50;;;;;;5093305;28;20967;-77
2023/06/03 10:03:08;;;;;;;4.20;1.80;;;21.00;46.80;;;;;;5092540;28;20468;-76
2023/06/03 10:05:36;;;;;;;1.67;1.40;;;21.00;46.70;;;;;;5094024;28;20787;-75
2023/06/03 10:08:04;;;;;;;2.40;1.80;;;20.90;46.70;;;;;;5092884;28;20510;-75
2023/06/03 10:10:31;;;;;;;2.90;1.87;;;20.90;46.50;;;;;;5093280;28;20466;-76
2023/06/03 10:12:58;;;;;;;2.40;1.63;;;20.90;46.70;;;;;;5095702;28;20450;-74
2023/06/03 10:15:37;;;;;;;1.97;1.60;;;20.90;46.40;;;;;;5097774;28;20502;-75
2023/06/03 10:18:04;;;;;;;4.17;2.23;;;21.00;46.50;;;;;;5096524;28;20477;-74
2023/06/03 10:20:34;;;;;;;3.03;1.60;;;20.90;47.10;;;;;;5096406;28;20469;-75
2023/06/03 10:23:03;;;;;;;1.53;1.43;;;20.90;46.10;;;;;;5094569;28;20523;-74
2023/06/03 10:25:33;;;;;;;2.40;1.60;;;20.90;46.40;;;;;;5095168;28;20465;-74
2023/06/03 10:28:01;;;;;;;1.90;1.70;;;20.80;46.10;;;;;;5094911;28;20473;-75
2023/06/03 10:30:33;;;;;;;5.20;1.70;;;20.80;46.20;;;;;;5096039;28;20473;-75
2023/06/03 10:33:03;;;;;;;3.33;2.07;;;20.80;46.20;;;;;;5094973;28;20781;-75
2023/06/03 10:35:32;;;;;;;3.37;1.57;;;20.80;46.40;;;;;;5095738;28;20841;-74
2023/06/03 10:38:00;;;;;;;1.83;1.50;;;20.70;45.90;;;;;;5094816;28;20479;-75
2023/06/03 10:40:28;;;;;;;4.60;1.50;;;20.80;46.60;;;;;;5095267;28;20469;-75
2023/06/03 10:42:56;;;;;;;2.87;1.20;;;20.90;46.70;;;;;;5093582;28;20469;-75
2023/06/03 10:45:23;;;;;;;2.43;1.97;;;20.90;46.70;;;;;;5095385;28;20874;-77
2023/06/03 10:47:54;;;;;;;3.20;1.57;;;21.00;46.30;;;;;;5092505;28;20474;-75
2023/06/03 10:50:35;;;;;;;2.13;1.40;;;20.80;44.90;;;;;;5095066;28;20469;-75
2023/06/03 10:53:18;;;;;;;4.90;1.83;;;20.90;45.20;;;;;;5094977;28;20465;-76
2023/06/03 10:56:09;;;;;;;4.63;1.77;;;20.80;45.70;;;;;;5091497;28;20469;-76
2023/06/03 10:58:37;;;;;;;2.23;1.53;;;20.80;45.80;;;;;;5085781;28;20476;-75
2023/06/03 11:01:06;;;;;;;1.97;1.70;;;20.90;45.90;;;;;;5095945;28;20526;-75
2023/06/03 11:03:36;;;;;;;5.60;1.87;;;20.90;45.40;;;;;;5094488;28;20469;-75
2023/06/03 11:06:41;;;;;;;2.70;1.50;;;20.90;45.60;;;;;;5095878;28;20503;-75
2023/06/03 11:09:12;;;;;;;1.87;1.70;;;20.90;45.30;;;;;;5096604;28;20465;-75
2023/06/03 11:12:03;;;;;;;2.77;1.33;;;20.80;45.50;;;;;;5091834;28;20479;-75
2023/06/03 11:14:55;;;;;;;1.90;1.30;;;20.70;45.60;;;;;;5094683;28;20465;-75
2023/06/03 11:17:24;;;;;;;3.00;1.43;;;20.60;45.70;;;;;;5095604;28;20471;-76
2023/06/03 11:19:54;;;;;;;3.10;1.87;;;20.70;45.60;;;;;;5096554;28;20462;-75
2023/06/03 11:22:43;;;;;;;2.03;1.53;;;20.80;45.50;;;;;;5095022;28;20464;-76
2023/06/03 11:25:27;;;;;;;2.77;1.67;;;20.90;45.40;;;;;;5095756;28;20807;-75
2023/06/03 11:27:54;;;;;;;1.77;1.50;;;20.90;45.50;;;;;;5098656;28;20466;-75
2023/06/03 11:30:22;;;;;;;3.10;1.80;;;21.00;45.80;;;;;;5098921;28;20801;-77
2023/06/03 11:33:09;;;;;;;2.67;1.90;;;21.00;45.50;;;;;;5096853;28;20548;-76
2023/06/03 11:35:36;;;;;;;2.77;1.70;;;21.10;45.50;;;;;;5097244;28;20457;-75
2023/06/03 11:38:05;;;;;;;3.10;2.03;;;21.20;45.50;;;;;;5097896;28;20481;-76
2023/06/03 11:40:45;;;;;;;2.60;1.57;;;21.30;45.60;;;;;;5097247;28;20531;-75
2023/06/03 11:43:13;;;;;;;1.90;1.33;;;21.30;45.40;;;;;;5098335;28;20449;-76
2023/06/03 11:45:40;;;;;;;2.70;1.60;;;21.40;45.40;;;;;;5098470;28;20469;-75
2023/06/03 11:48:13;;;;;;;2.47;1.50;;;21.40;45.60;;;;;;5098685;28;20473;-75
2023/06/03 11:50:48;;;;;;;3.03;1.87;;;21.30;45.50;;;;;;5100021;28;20466;-75
2023/06/03 11:53:33;;;;;;;2.03;1.50;;;21.40;45.40;;;;;;5100994;28;20495;-76
2023/06/03 11:56:08;;;;;;;1.93;1.80;;;21.50;45.40;;;;;;5099654;28;20476;-76
2023/06/03 11:58:36;;;;;;;4.50;1.87;;;21.50;44.80;;;;;;5098979;28;20477;-75
2023/06/03 12:01:07;;;;;;;2.93;1.53;;;21.40;44.90;;;;;;5101166;28;20476;-75
2023/06/03 12:03:35;;;;;;;3.73;1.30;;;21.40;45.10;;;;;;5102254;28;20465;-75
2023/06/03 12:06:06;;;;;;;1.50;1.40;;;21.30;44.90;;;;;;5103063;28;20560;-75
2023/06/03 12:08:49;;;;;;;3.57;1.60;;;21.30;44.80;;;;;;5104465;28;21028;-74
2023/06/03 12:11:27;;;;;;;2.10;1.43;;;21.30;44.60;;;;;;5104120;28;20470;-74
2023/06/03 12:13:54;;;;;;;1.60;1.47;;;21.40;44.90;;;;;;5107342;28;20465;-75
2023/06/03 12:16:32;;;;;;;2.90;1.20;;;21.40;44.40;;;;;;5107378;28;20453;-76
2023/06/03 12:19:00;;;;;;;2.43;1.77;;;21.40;44.30;;;;;;5104459;28;20465;-75
2023/06/03 12:21:27;;;;;;;2.77;1.30;;;21.40;45.10;;;;;;5102685;28;20530;-75
2023/06/03 12:23:56;;;;;;;2.27;1.40;;;21.40;44.50;;;;;;5103434;28;20465;-75
2023/06/03 12:26:24;;;;;;;3.10;1.40;;;21.40;44.80;;;;;;5102486;28;20466;-74
2023/06/03 12:28:51;;;;;;;2.07;1.50;;;21.40;44.90;;;;;;5103363;28;20474;-75
2023/06/03 12:31:20;;;;;;;2.70;1.50;;;21.40;45.20;;;;;;5104166;28;20464;-74
2023/06/03 12:33:48;;;;;;;2.40;1.67;;;21.40;45.50;;;;;;5102826;28;20915;-74
2023/06/03 12:36:16;;;;;;;2.70;1.40;;;21.40;45.50;;;;;;5103330;28;20581;-76
2023/06/03 12:38:58;;;;;;;1.93;1.73;;;21.40;45.10;;;;;;5100912;28;20473;-77
2023/06/03 12:41:29;;;;;;;1.90;1.30;;;21.40;45.20;;;;;;5096935;28;20461;-77
2023/06/03 12:44:00;;;;;;;1.57;1.10;;;21.30;45.10;;;;;;5094359;28;20470;-76
2023/06/03 12:46:28;;;;;;;3.00;1.80;;;21.40;45.20;;;;;;5092798;28;20495;-76
2023/06/03 12:48:58;;;;;;;1.87;1.30;;;21.40;45.20;;;;;;5090454;28;20780;-76
2023/06/03 12:51:28;;;;;;;1.33;1.20;;;21.40;45.20;;;;;;5091517;28;20544;-76
2023/06/03 12:53:58;;;;;;;2.33;1.53;;;21.50;45.40;;;;;;5091981;28;20461;-75
2023/06/03 12:56:26;;;;;;;5.30;1.80;;;21.40;44.70;;;;;;5091545;28;20472;-75
2023/06/03 12:58:54;;;;;;;2.43;1.47;;;21.40;44.20;;;;;;5092916;28;20544;-75
2023/06/03 13:01:22;;;;;;;4.83;1.90;;;21.40;44.70;;;;;;5090588;28;20474;-76